Time;durP1;ratioP1;P1;durP2;ratioP2;P2;SDS_P1;SDS_P2;PMS_P1;PMS_P2;Temp;Humidity;BMP_temperature;BMP_pressure;BME280_temperature;BME280_humidity;BME280_pressure;Samples;Min_cycle;Max_cycle;Signal;HPM_P1;HPM_P2
2022/01/20 00:04:19;;;;;;;16.2;23.9;;;;;;;1.4;71.8;98530;;;;
2022/01/20 00:25:55;;;;;;;16.2;23.9;;;;;;;2.3;69.3;98530;;;;
2022/01/20 00:37:17;;;;;;;9.4;13.9;;;;;;;2.4;69.2;98540;;;;
2022/01/20 00:47:12;;;;;;;9.4;13.9;;;;;;;2.6;68.6;98560;;;;
2022/01/20 00:58:12;;;;;;;9.4;13.9;;;;;;;2.8;68.5;98550;;;;
2022/01/20 01:08:12;;;;;;;7.4;10;;;;;;;2.9;67.9;98540;;;;
2022/01/20 01:29:29;;;;;;;7.4;10;;;;;;;2.8;69.1;98480;;;;
2022/01/20 01:39:12;;;;;;;6;8.7;;;;;;;2.9;69;98440;;;;
2022/01/20 01:49:13;;;;;;;6;8.7;;;;;;;2.9;69.5;98440;;;;
2022/01/20 02:00:12;;;;;;;6;8.7;;;;;;;2.9;70.3;98420;;;;
2022/01/20 02:21:12;;;;;;;6.7;10.1;;;;;;;2.8;69.6;98370;;;;
2022/01/20 02:31:12;;;;;;;6.7;10.1;;;;;;;2.9;69.2;98370;;;;
2022/01/20 02:52:12;;;;;;;6;8.9;;;;;;;3.4;65.8;98350;;;;
2022/01/20 03:03:13;;;;;;;4;6.4;;;;;;;3.4;65.6;98320;;;;
2022/01/20 03:13:12;;;;;;;4;6.4;;;;;;;3.5;65;98320;;;;
2022/01/20 03:23:12;;;;;;;4;6.4;;;;;;;3.5;65.8;98320;;;;
2022/01/20 03:34:12;;;;;;;4;7.2;;;;;;;3.4;67.9;98310;;;;
2022/01/20 03:45:12;;;;;;;4;7.2;;;;;;;3.4;68.7;98300;;;;
2022/01/20 03:55:12;;;;;;;4;7.2;;;;;;;3.3;69.2;98290;;;;
2022/01/20 04:05:12;;;;;;;5.1;8.7;;;;;;;3.4;68.7;98280;;;;
2022/01/20 04:15:15;;;;;;;5.1;8.7;;;;;;;3.4;68.3;98260;;;;
2022/01/20 04:25:12;;;;;;;5.1;8.7;;;;;;;3.5;68.4;98260;;;;
2022/01/20 04:36:13;;;;;;;4.4;7.6;;;;;;;3.4;68.5;98250;;;;
2022/01/20 04:46:20;;;;;;;4.4;7.6;;;;;;;3.4;68.6;98250;;;;
2022/01/20 04:57:17;;;;;;;4.4;7.6;;;;;;;3.5;69.1;98230;;;;
2022/01/20 05:07:19;;;;;;;4;7.1;;;;;;;3.4;70;98220;;;;
2022/01/20 05:18:12;;;;;;;4;7.1;;;;;;;3.4;70.3;98200;;;;
2022/01/20 05:28:12;;;;;;;4;7.1;;;;;;;3.3;70.3;98200;;;;
2022/01/20 05:39:12;;;;;;;3.8;6.3;;;;;;;3.1;72.2;98200;;;;
2022/01/20 05:50:12;;;;;;;3.8;6.3;;;;;;;2.8;74;98190;;;;
2022/01/20 06:00:12;;;;;;;3.8;6.3;;;;;;;2.9;74;98190;;;;
2022/01/20 06:11:12;;;;;;;5.3;8.4;;;;;;;2.9;73.9;98190;;;;
2022/01/20 06:21:13;;;;;;;5.3;8.4;;;;;;;2.9;73.5;98190;;;;
2022/01/20 06:31:13;;;;;;;5.3;8.4;;;;;;;2.9;73.2;98180;;;;
2022/01/20 06:41:13;;;;;;;6.3;10.3;;;;;;;3.4;69.7;98160;;;;
2022/01/20 06:52:13;;;;;;;6.3;10.3;;;;;;;3.7;68.1;98140;;;;
2022/01/20 07:02:12;;;;;;;4.5;6.8;;;;;;;3.9;68;98140;;;;
2022/01/20 07:12:12;;;;;;;4.5;6.8;;;;;;;3.9;67.7;98140;;;;
2022/01/20 07:23:13;;;;;;;4.5;6.8;;;;;;;3.9;68;98140;;;;
2022/01/20 07:33:13;;;;;;;5.7;11.5;;;;;;;4;67.9;98130;;;;
2022/01/20 07:44:14;;;;;;;5.7;11.5;;;;;;;4.1;67.3;98130;;;;
2022/01/20 07:54:13;;;;;;;5.7;11.5;;;;;;;4.1;67.7;98140;;;;
2022/01/20 08:04:13;;;;;;;4.6;7.5;;;;;;;4.1;67.4;98160;;;;
2022/01/20 08:15:14;;;;;;;4.6;7.5;;;;;;;3.5;73.3;98210;;;;
2022/01/20 08:26:12;;;;;;;4.6;7.5;;;;;;;1.7;80.3;98230;;;;
2022/01/20 08:36:13;;;;;;;3.3;5.1;;;;;;;1.3;82.3;98210;;;;
2022/01/20 08:46:13;;;;;;;3.3;5.1;;;;;;;1.4;83.5;98200;;;;
2022/01/20 08:56:13;;;;;;;3.3;5.1;;;;;;;1.7;83;98190;;;;
2022/01/20 09:06:13;;;;;;;6.8;9.4;;;;;;;1.8;82.8;98200;;;;
2022/01/20 09:17:12;;;;;;;6.8;9.4;;;;;;;1.9;82.5;98180;;;;
2022/01/20 09:27:12;;;;;;;6.8;9.4;;;;;;;2;81.9;98170;;;;
2022/01/20 09:38:13;;;;;;;13.3;16.2;;;;;;;2.4;80.7;98140;;;;
2022/01/20 09:49:13;;;;;;;13.3;16.2;;;;;;;2.9;78;98100;;;;
2022/01/20 09:59:13;;;;;;;13.3;16.2;;;;;;;3.3;76.2;98080;;;;
2022/01/20 10:10:13;;;;;;;9.6;11.9;;;;;;;3.5;74.5;98080;;;;
2022/01/20 10:20:13;;;;;;;9.6;11.9;;;;;;;3.8;73.8;98060;;;;
2022/01/20 10:30:13;;;;;;;9.6;11.9;;;;;;;4.1;69;98030;;;;
2022/01/20 10:40:13;;;;;;;5.9;10.2;;;;;;;3.9;66.9;98010;;;;
2022/01/20 10:51:12;;;;;;;5.9;10.2;;;;;;;3.9;64.4;97980;;;;
2022/01/20 11:01:13;;;;;;;5.9;10.2;;;;;;;3.8;61.6;97960;;;;
2022/01/20 11:11:13;;;;;;;3.4;5.8;;;;;;;3.8;59.9;97920;;;;
2022/01/20 11:22:13;;;;;;;3.4;5.8;;;;;;;3.9;60.4;97930;;;;
2022/01/20 11:33:13;;;;;;;3.7;6.6;;;;;;;4.1;59.2;97930;;;;
2022/01/20 11:43:13;;;;;;;3.7;6.6;;;;;;;2;76.8;98080;;;;
2022/01/20 11:54:13;;;;;;;3.7;6.6;;;;;;;-0.1;84.7;98110;;;;
2022/01/20 12:05:13;;;;;;;3.4;8.4;;;;;;;-0.4;84.3;98080;;;;
2022/01/20 12:16:13;;;;;;;3.4;8.4;;;;;;;-0.1;84.2;98090;;;;
2022/01/20 12:26:13;;;;;;;3.4;8.4;;;;;;;0;82.7;98100;;;;
2022/01/20 12:36:13;;;;;;;3.6;7.4;;;;;;;-0.1;81.5;98100;;;;
2022/01/20 12:46:13;;;;;;;3.6;7.4;;;;;;;0.1;82.1;98080;;;;
2022/01/20 12:57:13;;;;;;;3.6;7.4;;;;;;;0;81.6;98100;;;;
2022/01/20 13:08:14;;;;;;;6;10.3;;;;;;;0;81.4;98140;;;;
2022/01/20 13:18:13;;;;;;;6;10.3;;;;;;;0.2;78.4;98150;;;;
2022/01/20 13:28:14;;;;;;;6;10.3;;;;;;;0;71.9;98170;;;;
2022/01/20 13:39:13;;;;;;;5.2;9.6;;;;;;;-0.2;67.9;98170;;;;
2022/01/20 13:50:13;;;;;;;5.2;9.6;;;;;;;-0.4;67.7;98200;;;;
2022/01/20 14:00:14;;;;;;;5.2;9.6;;;;;;;-0.7;67;98260;;;;
2022/01/20 14:11:13;;;;;;;3.5;5.9;;;;;;;-0.7;68.3;98260;;;;
2022/01/20 14:22:13;;;;;;;3.5;5.9;;;;;;;-0.6;67.3;98290;;;;
2022/01/20 14:32:13;;;;;;;5.2;9.3;;;;;;;-0.5;67.6;98280;;;;
2022/01/20 14:42:14;;;;;;;5.2;9.3;;;;;;;-0.6;67;98290;;;;
2022/01/20 14:53:13;;;;;;;5.2;9.3;;;;;;;-0.7;64.4;98300;;;;
2022/01/20 15:03:13;;;;;;;5.9;11.1;;;;;;;-1;64.2;98310;;;;
2022/01/20 15:13:13;;;;;;;5.9;11.1;;;;;;;-1.1;63.7;98310;;;;
2022/01/20 15:23:13;;;;;;;5.9;11.1;;;;;;;-1.2;64.1;98310;;;;
2022/01/20 15:34:14;;;;;;;4.3;7.5;;;;;;;-1.3;64.6;98320;;;;
2022/01/20 15:45:13;;;;;;;4.3;7.5;;;;;;;-1.1;64.3;98330;;;;
2022/01/20 15:56:13;;;;;;;4.3;7.5;;;;;;;-1.1;64.6;98330;;;;
2022/01/20 16:06:13;;;;;;;5.4;11.1;;;;;;;-1.3;65;98330;;;;
2022/01/20 16:17:13;;;;;;;5.4;11.1;;;;;;;-1.5;65.8;98320;;;;
2022/01/20 16:27:13;;;;;;;5.4;11.1;;;;;;;-1.5;66.1;98310;;;;
2022/01/20 16:37:13;;;;;;;7.9;13.3;;;;;;;-1.4;66.4;98320;;;;
2022/01/20 16:48:13;;;;;;;7.9;13.3;;;;;;;-1;65.4;98330;;;;
2022/01/20 16:58:13;;;;;;;7.9;13.3;;;;;;;-0.8;65.3;98330;;;;
2022/01/20 17:09:13;;;;;;;8.1;12.9;;;;;;;-0.9;65.3;98320;;;;
2022/01/20 17:20:13;;;;;;;8.1;12.9;;;;;;;-1.1;66.4;98320;;;;
2022/01/20 17:31:13;;;;;;;10.4;16.6;;;;;;;-1.2;66.8;98330;;;;
2022/01/20 17:42:13;;;;;;;10.4;16.6;;;;;;;-1.3;67.1;98330;;;;
2022/01/20 17:52:13;;;;;;;10.4;16.6;;;;;;;-1.4;68.3;98350;;;;
2022/01/20 18:03:14;;;;;;;10.1;16;;;;;;;-1.4;68.3;98350;;;;
2022/01/20 18:13:13;;;;;;;10.1;16;;;;;;;-1.5;68.2;98350;;;;
2022/01/20 18:24:14;;;;;;;10.1;16;;;;;;;-1.4;68;98360;;;;
2022/01/20 18:34:13;;;;;;;9.7;16.2;;;;;;;-1.4;68.1;98360;;;;
2022/01/20 18:44:13;;;;;;;9.7;16.2;;;;;;;-1.5;68.4;98370;;;;
2022/01/20 18:55:13;;;;;;;9.7;16.2;;;;;;;-1.5;68;98370;;;;
2022/01/20 19:05:13;;;;;;;12.1;18.2;;;;;;;-1.5;68.2;98380;;;;
2022/01/20 19:16:13;;;;;;;12.1;18.2;;;;;;;-1.4;68;98380;;;;
2022/01/20 19:27:13;;;;;;;12.1;18.2;;;;;;;-1.4;68.2;98400;;;;
2022/01/20 19:38:14;;;;;;;11.7;19.3;;;;;;;-1.3;68;98410;;;;
2022/01/20 19:49:13;;;;;;;11.7;19.3;;;;;;;-1.1;67.2;98420;;;;
2022/01/20 19:59:16;;;;;;;11.7;19.3;;;;;;;-1.1;67.7;98440;;;;
2022/01/20 20:09:13;;;;;;;11.8;22.5;;;;;;;-1.2;66.9;98450;;;;
2022/01/20 20:20:13;;;;;;;11.8;22.5;;;;;;;-1.1;66.9;98460;;;;
2022/01/20 20:30:13;;;;;;;21.9;30.7;;;;;;;-1.3;66.6;98450;;;;
2022/01/20 20:41:13;;;;;;;21.9;30.7;;;;;;;-1.2;67.1;98450;;;;
2022/01/20 20:51:13;;;;;;;21.9;30.7;;;;;;;-1.3;67;98440;;;;
2022/01/20 21:02:13;;;;;;;17.3;28.2;;;;;;;-1.5;67.1;98450;;;;
2022/01/20 21:13:13;;;;;;;17.3;28.2;;;;;;;-1.6;67.2;98450;;;;
2022/01/20 21:23:13;;;;;;;17.3;28.2;;;;;;;-1.5;67.4;98450;;;;
2022/01/20 21:34:13;;;;;;;15;20.6;;;;;;;-1.4;67.8;98470;;;;
2022/01/20 21:44:13;;;;;;;15;20.6;;;;;;;-1.3;67.3;98470;;;;
2022/01/20 21:55:13;;;;;;;15;20.6;;;;;;;-1.4;67.5;98480;;;;
2022/01/20 22:05:13;;;;;;;13.8;19.8;;;;;;;-1.3;68.7;98490;;;;
2022/01/20 22:15:13;;;;;;;13.8;19.8;;;;;;;-1.4;69.1;98490;;;;
2022/01/20 22:26:13;;;;;;;13.8;19.8;;;;;;;-1.4;68.8;98490;;;;
2022/01/20 22:37:13;;;;;;;14.9;22.6;;;;;;;-1.4;69.3;98520;;;;
2022/01/20 22:48:13;;;;;;;14.9;22.6;;;;;;;-1.3;69.7;98530;;;;
2022/01/20 22:58:14;;;;;;;14.9;22.6;;;;;;;-1.4;70.3;98550;;;;
2022/01/20 23:09:13;;;;;;;14.2;24.6;;;;;;;-1.3;71.6;98560;;;;
2022/01/20 23:30:13;;;;;;;11;16.6;;;;;;;-1;71.9;98570;;;;
2022/01/20 23:41:16;;;;;;;11;16.6;;;;;;;-1;71.2;98570;;;;
2022/01/20 23:52:13;;;;;;;11;16.6;;;;;;;-1;71.9;98580;;;;
